Airfield :
LOGIN :

Register | Disclaimer

   EN    FR    IT 

 










Legend :    VFR   Marginal VFR   IFR   Intensive IFR   Very Intensive IFR
Visi :
Ceiling :
>= 8 km
>= 3000ft
5 to 8 km
1000 to 3000 ft
1500m to 5 km
500 to 1000 ft
800 to 1500m
200 to 500 ft
< 800m
< 200 ft
Symbols :   Thunderstorms  Fog  Heavy snow  Heavy precipitations  Wind > 20 kt
SIGMETs :     Misc.  Thunderstorms  Icing  Turbulence  Mountain Waves  Volcanic Ashes






- Airport Elevation : 870 ft
- IATA code : ETZ


LFJL - Metz Nancy Lorraine

CURRENT METAR :
  • 262000Z AUTO 16009KT 8000 FEW031 OVC092 06/05 Q1017 TEMPO 3500 BR BKN005

EXPIRED METARs :
  • 261930Z AUTO 17009KT 9000 NSC 05/04 Q1017 TEMPO 3500 BR BKN005
  • 261900Z AUTO 18008KT 9000 NSC 05/04 Q1017 TEMPO 3500 BR BKN005
  • 261830Z AUTO 16010KT 7000 NSC 05/04 Q1017 TEMPO 3500 BR BKN005
  • 261800Z AUTO 16012KT 7000 NSC 06/05 Q1017 TEMPO 3500 BR BKN005
  • 261730Z AUTO 16013KT 8000 NSC 06/05 Q1017 TEMPO 3500 BR BKN005

TAF TAF LFJL
Valid from the 26 at 18:00 until the 27 at 18:00 UTC


261702Z 2618/2718 17011KT 7000 FEW005 SCT040 BKN090
PROB40
TEMPO 2618/2704 3500 BR BKN005
TEMPO 2704/2718 4000 RA BKN012 OVC025



MET'MAP, your aeronautical weather chart ! - Copyright ORBIFLY December 2007 - Disclaimer

ORBIFLY MET'MAP TEAM :

Programming & Development : Alexandra Zaïnal
Concept & original design : Baudouin d'Aumeries
Assistance for programming : Marc-Olivier Méhu
Technical & hardware support : Manuel Goepfert

Contact : metmap@orbifly.com




SOURCES & CREDITS :

   NOAA